Time;durP1;ratioP1;P1;durP2;ratioP2;P2;SDS_P1;SDS_P2;PMS_P1;PMS_P2;Temp;Humidity;BMP_temperature;BMP_pressure;BME280_temperature;BME280_humidity;BME280_pressure;Samples;Min_cycle;Max_cycle;Signal;HPM_P1;HPM_P2
2022/10/12 00:02:42;;;;;;;41.95;19.07;;;;;;;2.54;75.42;101249.66;1995336;88;20190;-78
2022/10/12 00:05:43;;;;;;;;;;;;;;;2.50;75.48;101252.05;1995269;88;21145;-80
2022/10/12 00:08:46;;;;;;;41.73;17.75;;;;;;;2.47;75.61;101249.61;2000808;88;20145;-78
2022/10/12 00:11:47;;;;;;;35.80;17.05;;;;;;;2.44;75.43;101249.31;2000911;88;21351;-79
2022/10/12 00:14:49;;;;;;;;;;;;;;;2.42;75.53;101246.40;2001168;88;21062;-77
2022/10/12 00:17:52;;;;;;;35.90;15.48;;;;;;;2.42;75.77;101245.96;1997230;88;20133;-81
2022/10/12 00:21:06;;;;;;;30.52;14.25;;;;;;;2.44;75.75;101248.00;1999692;88;21023;-79
2022/10/12 00:24:08;;;;;;;35.00;15.60;;;;;;;2.45;75.66;101249.72;1996875;88;21073;-80
2022/10/12 00:27:09;;;;;;;31.75;14.30;;;;;;;2.45;75.50;101251.02;1998899;88;21620;-78
2022/10/12 00:30:12;;;;;;;30.02;14.18;;;;;;;2.41;75.46;101248.19;1999792;88;21065;-78
2022/10/12 00:33:13;;;;;;;34.78;15.38;;;;;;;2.44;75.68;101242.77;1997634;88;21521;-82
2022/10/12 00:36:23;;;;;;;;;;;;;;;2.46;75.79;101252.70;2001352;88;21080;-80
2022/10/12 00:39:24;;;;;;;31.12;14.15;;;;;;;2.46;75.70;101252.70;1998187;88;20188;-82
2022/10/12 00:42:25;;;;;;;;;;;;;;;2.47;75.59;101247.83;2002158;88;21093;-81
2022/10/12 00:45:26;;;;;;;34.95;15.90;;;;;;;2.45;75.55;101257.58;2000900;88;20148;-80
2022/10/12 00:48:27;;;;;;;33.80;16.30;;;;;;;2.35;76.00;101253.77;1997336;88;21088;-79
2022/10/12 00:51:29;;;;;;;38.55;15.85;;;;;;;2.26;76.13;101256.08;1987034;88;21107;-79
2022/10/12 00:54:35;;;;;;;38.80;15.98;;;;;;;2.22;76.37;101259.31;1989468;88;21091;-77
2022/10/12 00:57:36;;;;;;;34.30;15.23;;;;;;;2.22;76.18;101252.32;1992939;88;21587;-80
2022/10/12 01:00:38;;;;;;;;;;;;;;;2.21;76.12;101251.08;1992796;88;21109;-80
2022/10/12 01:03:40;;;;;;;32.95;15.43;;;;;;;2.21;76.17;101257.16;1977719;89;20141;-80
2022/10/12 01:06:41;;;;;;;29.07;15.35;;;;;;;2.19;76.27;101252.47;2006528;88;21014;-81
2022/10/12 01:09:42;;;;;;;30.02;14.90;;;;;;;2.20;76.15;101243.70;2007544;88;20962;-80
2022/10/12 01:12:44;;;;;;;;;;;;;;;2.19;76.05;101245.92;2008170;88;21610;-79
2022/10/12 01:16:14;;;;;;;35.95;14.75;;;;;;;2.18;76.04;101250.78;2004135;88;20555;-77
2022/10/12 01:19:44;;;;;;;38.08;16.77;;;;;;;2.17;76.04;101248.27;1942708;90;21079;-80
2022/10/12 01:23:07;;;;;;;33.65;15.90;;;;;;;2.16;76.16;101249.17;1987813;88;21036;-83
2022/10/12 01:26:50;;;;;;;31.27;15.30;;;;;;;2.21;76.34;101247.99;1990990;88;21046;-80
2022/10/12 01:30:05;;;;;;;32.20;15.23;;;;;;;2.19;76.01;101254.24;1993466;88;21040;-79
2022/10/12 01:33:26;;;;;;;31.30;16.05;;;;;;;2.08;75.92;101255.30;1993507;88;21029;-81
2022/10/12 01:36:38;;;;;;;33.35;16.05;;;;;;;2.00;76.17;101253.13;1992620;88;21009;-81
2022/10/12 01:39:59;;;;;;;41.13;15.65;;;;;;;1.94;76.37;101260.84;1988037;88;21472;-80
2022/10/12 01:42:58;;;;;;;34.25;15.05;;;;;;;1.89;76.61;101264.64;1993209;88;21127;-79
2022/10/12 01:46:26;;;;;;;33.48;15.20;;;;;;;1.84;76.72;101264.05;1994507;88;21027;-79
2022/10/12 01:49:32;;;;;;;38.30;16.25;;;;;;;1.85;76.58;101263.10;1993232;88;21096;-82
2022/10/12 01:53:07;;;;;;;29.75;14.90;;;;;;;1.87;76.52;101265.19;2001734;87;21529;-79
2022/10/12 01:56:17;;;;;;;28.25;15.20;;;;;;;1.91;76.78;101264.08;2005634;88;21041;-81
2022/10/12 01:59:41;;;;;;;32.17;13.88;;;;;;;1.94;76.75;101263.91;1982755;88;21030;-80
2022/10/12 02:03:00;;;;;;;36.77;14.78;;;;;;;1.92;76.62;101261.86;2002935;87;21089;-82
2022/10/12 02:06:12;;;;;;;33.78;14.15;;;;;;;1.91;76.51;101257.53;2002758;87;21059;-81
2022/10/12 02:09:23;;;;;;;30.75;13.40;;;;;;;1.85;76.59;101260.48;2001049;87;21067;-80
2022/10/12 02:12:27;;;;;;;30.00;12.73;;;;;;;1.89;76.93;101263.34;2000901;87;21653;-78
2022/10/12 02:15:29;;;;;;;26.15;12.78;;;;;;;1.89;76.81;101262.03;2001801;88;21049;-79
2022/10/12 02:18:34;;;;;;;24.63;13.55;;;;;;;1.86;76.74;101266.09;1999923;87;21026;-78
2022/10/12 02:21:35;;;;;;;30.75;13.80;;;;;;;1.79;76.53;101269.04;2000590;88;21119;-81
2022/10/12 02:24:40;;;;;;;30.55;14.35;;;;;;;1.78;76.86;101264.75;2000205;87;21033;-79
2022/10/12 02:27:46;;;;;;;28.12;13.30;;;;;;;1.81;76.99;101265.05;2002178;87;20978;-80
2022/10/12 02:30:52;;;;;;;26.70;12.65;;;;;;;1.83;76.99;101263.64;2000761;87;21146;-79
2022/10/12 02:34:09;;;;;;;26.17;13.48;;;;;;;1.85;77.09;101259.17;1998684;87;21125;-80
2022/10/12 02:37:33;;;;;;;25.20;12.73;;;;;;;1.85;77.11;101257.87;1992362;87;21035;-78
2022/10/12 02:40:55;;;;;;;25.97;12.07;;;;;;;1.84;77.13;101250.95;2005634;87;21068;-79
2022/10/12 02:44:03;;;;;;;33.50;12.85;;;;;;;1.81;76.85;101259.81;2003587;87;21044;-79
2022/10/12 02:47:08;;;;;;;29.20;13.03;;;;;;;1.72;76.76;101257.23;2008394;87;21519;-79
2022/10/12 02:50:11;;;;;;;26.62;12.70;;;;;;;1.62;77.04;101259.10;1997975;87;21032;-78
2022/10/12 02:53:12;;;;;;;32.25;12.10;;;;;;;1.56;77.22;101266.81;1998501;87;21057;-81
2022/10/12 02:56:15;;;;;;;23.52;12.45;;;;;;;1.49;77.25;101259.77;1998550;87;21021;-77
2022/10/12 02:59:18;;;;;;;34.40;13.83;;;;;;;1.49;77.38;101259.77;2000905;87;21555;-80
2022/10/12 03:02:20;;;;;;;31.17;13.58;;;;;;;1.47;77.49;101262.08;2001910;87;21010;-80
2022/10/12 03:05:21;;;;;;;24.45;12.80;;;;;;;1.44;77.65;101255.23;2001735;87;21012;-80
2022/10/12 03:08:22;;;;;;;22.45;11.97;;;;;;;1.48;77.82;101265.06;2000078;87;20982;-81
2022/10/12 03:11:23;;;;;;;39.25;15.85;;;;;;;1.48;77.71;101267.20;1995709;87;21068;-78
2022/10/12 03:14:26;;;;;;;25.55;12.82;;;;;;;1.53;77.80;101256.52;2003327;87;21049;-79
2022/10/12 03:17:27;;;;;;;29.95;12.10;;;;;;;1.55;77.76;101258.13;2001018;87;20998;-81
2022/10/12 03:20:28;;;;;;;31.40;12.68;;;;;;;1.58;77.90;101257.13;1997665;87;21078;-81
2022/10/12 03:23:30;;;;;;;22.50;11.40;;;;;;;1.63;78.02;101259.01;1999956;87;21491;-78
2022/10/12 03:26:31;;;;;;;25.90;12.00;;;;;;;1.66;77.84;101261.48;2002333;87;21500;-80
2022/10/12 03:29:32;;;;;;;32.48;13.50;;;;;;;1.67;77.82;101257.94;1999057;87;21062;-77
2022/10/12 03:32:34;;;;;;;26.90;13.25;;;;;;;1.66;77.75;101252.33;1997358;87;20997;-81
2022/10/12 03:35:36;;;;;;;30.02;12.73;;;;;;;1.63;77.67;101260.78;1998845;87;21095;-81
2022/10/12 03:38:37;;;;;;;29.72;13.93;;;;;;;1.60;77.67;101257.02;1999617;87;21012;-78
2022/10/12 03:41:38;;;;;;;24.60;13.55;;;;;;;1.55;77.58;101263.36;1998939;87;21036;-82
2022/10/12 03:44:39;;;;;;;27.35;13.95;;;;;;;1.55;77.61;101270.37;1996789;87;21048;-81
2022/10/12 03:47:40;;;;;;;;;;;;;;;1.51;77.70;101272.74;2004473;87;21043;-80
2022/10/12 03:50:41;;;;;;;28.02;13.95;;;;;;;1.48;77.88;101269.83;1972122;88;20155;-78
2022/10/12 03:53:42;;;;;;;26.80;12.47;;;;;;;1.51;78.08;101269.66;1972827;89;21023;-80
2022/10/12 03:56:43;;;;;;;;;;;;;;;1.50;78.08;101272.38;1976296;89;21089;-80
2022/10/12 03:59:44;;;;;;;26.25;12.10;;;;;;;1.47;78.04;101271.23;1970569;89;20216;-82
2022/10/12 04:02:44;;;;;;;;;;;;;;;1.36;78.01;101273.09;1981593;89;21026;-80
2022/10/12 04:05:56;;;;;;;22.52;12.60;;;;;;;1.34;78.06;101269.70;1976038;89;20179;-81
2022/10/12 04:08:58;;;;;;;25.17;13.35;;;;;;;1.32;78.16;101275.02;1964270;89;23114;-76
2022/10/12 04:11:59;;;;;;;27.90;13.13;;;;;;;1.34;78.26;101271.84;1994525;88;21048;-77
2022/10/12 04:15:00;;;;;;;29.18;14.23;;;;;;;1.35;78.13;101277.91;2003237;88;21100;-79
2022/10/12 04:18:00;;;;;;;;;;;;;;;1.29;78.17;101277.77;2006304;88;21047;-79
2022/10/12 04:21:03;;;;;;;30.57;14.07;;;;;;;1.30;78.14;101278.17;2004140;88;20166;-81
2022/10/12 04:24:04;;;;;;;26.65;12.50;;;;;;;1.29;78.26;101282.16;1980574;89;21047;-77
2022/10/12 04:27:06;;;;;;;27.60;12.53;;;;;;;1.30;78.28;101278.64;1959988;89;21035;-80
2022/10/12 04:30:09;;;;;;;26.85;12.85;;;;;;;1.29;78.09;101279.55;1961152;89;21055;-79
2022/10/12 04:33:10;;;;;;;24.23;12.23;;;;;;;1.24;78.01;101282.84;1962363;89;21071;-81
2022/10/12 04:36:11;;;;;;;26.87;13.68;;;;;;;1.20;77.94;101282.64;1959906;90;21053;-79
2022/10/12 04:39:12;;;;;;;;;;;;;;;1.16;78.04;101275.42;1967124;89;21070;-80
2022/10/12 04:42:13;;;;;;;26.52;13.30;;;;;;;1.16;78.19;101279.34;1980140;89;20216;-79
2022/10/12 04:45:14;;;;;;;23.02;12.43;;;;;;;1.15;78.31;101286.78;1986909;89;21496;-78
2022/10/12 04:48:15;;;;;;;30.48;13.35;;;;;;;1.15;78.31;101293.78;1981421;89;21082;-79
2022/10/12 04:51:17;;;;;;;27.32;13.08;;;;;;;1.13;78.19;101287.34;1990183;87;21058;-79
2022/10/12 04:54:18;;;;;;;24.47;12.47;;;;;;;1.11;78.04;101291.33;1995185;88;21015;-82
2022/10/12 04:57:19;;;;;;;31.57;13.75;;;;;;;1.09;78.00;101294.47;2003437;88;21516;-84
2022/10/12 05:00:20;;;;;;;;;;;;;;;1.14;78.18;101290.80;2005017;88;21061;-82
2022/10/12 05:03:23;;;;;;;28.07;12.73;;;;;;;1.15;78.24;101294.63;1991560;87;20108;-78
2022/10/12 05:06:25;;;;;;;25.52;11.95;;;;;;;1.18;78.48;101291.85;1989674;87;21528;-81
2022/10/12 05:09:26;;;;;;;35.08;14.03;;;;;;;1.19;78.28;101289.64;1993443;87;21500;-79
2022/10/12 05:12:27;;;;;;;43.45;20.37;;;;;;;1.17;78.11;101299.32;1998780;87;21095;-77
2022/10/12 05:15:27;;;;;;;;;;;;;;;1.16;78.19;101294.19;1998695;87;21608;-79
2022/10/12 05:18:28;;;;;;;35.88;14.50;;;;;;;1.15;78.20;101299.02;1995400;88;20455;-79
2022/10/12 05:21:29;;;;;;;;;;;;;;;1.14;78.14;101307.33;2028474;86;21047;-81
2022/10/12 05:24:30;;;;;;;29.75;14.78;;;;;;;1.14;78.09;101297.34;2035612;86;20174;-79
2022/10/12 05:27:31;;;;;;;;;;;;;;;1.16;78.20;101302.03;2028285;86;20987;-81
2022/10/12 05:30:33;;;;;;;37.67;14.40;;;;;;;1.17;78.20;101302.41;2030316;86;20612;-79
2022/10/12 05:33:34;;;;;;;33.40;14.93;;;;;;;1.12;78.70;101303.94;2044868;86;21049;-80
2022/10/12 05:36:36;;;;;;;32.60;14.00;;;;;;;1.18;78.79;101298.86;2030873;86;21101;-80
2022/10/12 05:39:37;;;;;;;30.02;13.98;;;;;;;1.26;78.67;101313.23;2033855;86;20997;-81
2022/10/12 05:42:38;;;;;;;;;;;;;;;1.30;78.64;101303.48;2034711;86;20993;-79
2022/10/12 05:45:38;;;;;;;30.27;13.03;;;;;;;1.34;78.85;101305.00;2033529;86;20098;-77
2022/10/12 05:48:39;;;;;;;;;;;;;;;1.37;78.72;101306.62;2038577;86;20966;-80
2022/10/12 05:51:40;;;;;;;33.20;15.58;;;;;;;1.39;78.62;101312.63;2048921;85;20154;-81
2022/10/12 05:54:41;;;;;;;31.37;13.85;;;;;;;1.49;78.96;101308.16;2049214;85;21623;-80
2022/10/12 05:57:42;;;;;;;34.03;15.23;;;;;;;1.71;79.18;101309.62;2047182;85;21104;-80
2022/10/12 06:00:43;;;;;;;;;;;;;;;2.01;79.23;101307.16;2051149;85;21672;-80
2022/10/12 06:03:44;;;;;;;25.95;12.80;;;;;;;2.24;79.02;101301.51;2044624;85;20135;-78
2022/10/12 06:06:45;;;;;;;;;;;;;;;2.45;78.89;101299.49;2050341;85;20994;-81
2022/10/12 06:09:47;;;;;;;26.70;12.98;;;;;;;2.89;79.19;101306.59;2047035;85;20178;-82
2022/10/12 06:12:48;;;;;;;27.90;12.95;;;;;;;3.41;79.27;101311.89;2049613;85;21069;-81
2022/10/12 06:15:49;;;;;;;;;;;;;;;3.95;78.82;101312.57;2049184;85;21057;-79
2022/10/12 06:18:50;;;;;;;30.23;18.37;;;;;;;4.47;78.74;101317.99;2048605;85;20392;-80
2022/10/12 06:21:51;;;;;;;;;;;;;;;4.90;78.15;101320.97;2049447;85;21040;-80
2022/10/12 06:24:52;;;;;;;33.38;15.95;;;;;;;5.26;77.87;101312.39;2046428;85;20121;-79
2022/10/12 06:27:53;;;;;;;28.57;15.68;;;;;;;5.49;77.11;101308.22;2053765;85;20996;-79
2022/10/12 06:30:57;;;;;;;31.70;15.80;;;;;;;5.68;76.79;101322.27;2042548;85;21029;-79
2022/10/12 06:33:58;;;;;;;42.48;16.40;;;;;;;6.12;76.95;101317.52;2049478;85;21041;-80
2022/10/12 06:36:59;;;;;;;28.42;15.05;;;;;;;6.45;76.54;101316.42;2051739;85;21041;-81
2022/10/12 06:40:00;;;;;;;30.35;13.95;;;;;;;6.82;76.38;101312.90;2045606;85;20998;-80
2022/10/12 06:43:01;;;;;;;29.85;16.93;;;;;;;7.04;75.37;101318.72;2048952;85;21064;-79
2022/10/12 06:46:03;;;;;;;33.38;18.23;;;;;;;7.11;75.13;101321.28;2051832;85;21092;-79
2022/10/12 06:49:03;;;;;;;39.58;18.92;;;;;;;7.39;75.43;101318.72;2046640;85;21079;-79
2022/10/12 06:52:04;;;;;;;30.17;15.63;;;;;;;7.78;75.18;101318.77;2029889;85;21615;-79
2022/10/12 06:55:07;;;;;;;30.08;15.60;;;;;;;8.07;74.96;101320.44;2028307;86;21005;-79
2022/10/12 06:58:08;;;;;;;39.45;16.20;;;;;;;8.45;74.70;101315.27;2020958;86;21081;-79
2022/10/12 07:01:09;;;;;;;34.10;16.25;;;;;;;8.77;74.13;101315.77;2033927;86;21013;-80
2022/10/12 07:04:11;;;;;;;35.83;17.05;;;;;;;9.05;73.84;101320.11;2028170;86;21508;-80
2022/10/12 07:07:12;;;;;;;33.53;16.10;;;;;;;9.44;73.70;101317.25;2038043;86;21042;-80
2022/10/12 07:10:13;;;;;;;30.82;16.55;;;;;;;9.72;73.37;101314.41;2023355;86;21029;-81
2022/10/12 07:13:14;;;;;;;30.12;15.72;;;;;;;10.19;73.48;101310.77;2028551;86;21524;-79
2022/10/12 07:16:16;;;;;;;29.65;16.40;;;;;;;10.64;72.85;101314.27;2032657;86;21085;-80
2022/10/12 07:19:17;;;;;;;30.27;16.07;;;;;;;11.05;72.38;101312.34;2033894;86;21037;-79
2022/10/12 07:22:18;;;;;;;34.70;17.48;;;;;;;11.24;71.75;101314.66;2032442;86;20966;-80
2022/10/12 07:25:21;;;;;;;35.92;17.62;;;;;;;11.50;71.53;101313.55;2030031;86;21332;-79
2022/10/12 07:28:22;;;;;;;31.25;16.95;;;;;;;11.81;70.93;101314.98;2037346;85;21065;-78
2022/10/12 07:31:23;;;;;;;28.25;16.17;;;;;;;12.09;70.44;101315.88;2035256;86;21116;-80
2022/10/12 07:34:27;;;;;;;30.85;17.95;;;;;;;12.50;70.27;101314.16;2033309;86;21734;-79
2022/10/12 07:37:28;;;;;;;31.25;17.25;;;;;;;12.80;69.76;101318.30;2032345;86;21571;-81
2022/10/12 07:40:30;;;;;;;31.15;17.05;;;;;;;13.11;69.30;101314.75;2029425;86;21003;-82
2022/10/12 07:43:32;;;;;;;28.75;17.05;;;;;;;13.26;68.75;101316.89;2026739;86;21042;-79
2022/10/12 07:46:33;;;;;;;33.78;17.12;;;;;;;13.29;68.14;101312.58;2035353;86;20986;-81
2022/10/12 07:49:34;;;;;;;30.48;16.20;;;;;;;13.45;67.71;101316.70;2028116;86;21025;-79
2022/10/12 07:52:35;;;;;;;31.57;17.37;;;;;;;13.48;66.87;101315.55;2032634;86;21110;-81
2022/10/12 07:55:36;;;;;;;31.85;17.17;;;;;;;13.48;66.51;101307.05;2031809;86;21540;-79
2022/10/12 07:58:37;;;;;;;28.42;16.17;;;;;;;13.70;66.71;101315.53;2032919;86;21047;-79
2022/10/12 08:01:38;;;;;;;35.95;16.75;;;;;;;13.80;66.14;101313.09;2033409;86;20998;-79
2022/10/12 08:04:39;;;;;;;31.35;16.85;;;;;;;13.88;66.19;101310.94;2032468;86;21037;-79
2022/10/12 08:07:40;;;;;;;34.50;17.75;;;;;;;14.18;66.03;101310.91;2029486;86;21077;-80
2022/10/12 08:10:41;;;;;;;27.75;17.82;;;;;;;14.44;65.60;101309.48;2034446;86;20989;-80
2022/10/12 08:13:43;;;;;;;29.65;15.98;;;;;;;14.72;65.05;101308.73;2034136;86;21039;-79
2022/10/12 08:16:44;;;;;;;26.97;15.38;;;;;;;14.87;65.04;101297.42;2028184;86;21541;-80
2022/10/12 08:19:46;;;;;;;25.40;15.68;;;;;;;15.17;64.71;101306.09;2030670;86;21205;-79
2022/10/12 08:22:47;;;;;;;25.30;13.80;;;;;;;15.40;63.67;101305.40;2034419;85;20986;-79
2022/10/12 08:25:54;;;;;;;27.73;14.58;;;;;;;15.55;63.61;101299.70;2026516;86;21025;-80
2022/10/12 08:28:56;;;;;;;25.55;15.32;;;;;;;15.61;62.68;101301.69;2032303;86;21525;-80
2022/10/12 08:31:57;;;;;;;26.93;14.28;;;;;;;15.67;62.69;101306.34;2031576;86;21505;-81
2022/10/12 08:34:58;;;;;;;24.20;12.47;;;;;;;15.88;61.88;101308.98;2037040;86;21023;-81
2022/10/12 08:37:59;;;;;;;28.47;13.18;;;;;;;16.12;62.09;101306.22;2034408;86;20986;-80
2022/10/12 08:41:24;;;;;;;21.33;11.85;;;;;;;16.33;61.89;101308.31;2036084;86;21073;-80
2022/10/12 08:44:51;;;;;;;22.77;12.13;;;;;;;16.53;61.11;101310.05;2032863;86;21064;-78
2022/10/12 08:47:57;;;;;;;21.57;11.48;;;;;;;16.78;60.89;101304.53;2035705;86;20992;-79
2022/10/12 08:51:04;;;;;;;21.95;11.00;;;;;;;16.84;59.83;101307.86;2030097;86;21101;-80
2022/10/12 08:54:09;;;;;;;24.10;11.50;;;;;;;17.02;60.03;101306.20;2028439;86;21530;-80
2022/10/12 08:57:18;;;;;;;24.30;12.30;;;;;;;17.17;59.67;101296.85;2028305;86;21017;-80
2022/10/12 09:00:19;;;;;;;23.20;11.70;;;;;;;17.39;59.53;101297.82;2031663;86;21064;-79
2022/10/12 09:03:50;;;;;;;21.62;10.40;;;;;;;17.64;58.76;101302.43;2030057;86;21050;-80
2022/10/12 09:07:18;;;;;;;21.02;10.30;;;;;;;17.80;58.40;101295.58;2030334;86;21018;-81
2022/10/12 09:10:48;;;;;;;25.75;11.08;;;;;;;18.03;57.53;101298.66;2033455;86;21523;-80
2022/10/12 09:14:19;;;;;;;20.62;9.58;;;;;;;17.74;57.08;101297.63;2031118;86;21575;-81
2022/10/12 09:17:32;;;;;;;21.42;10.25;;;;;;;17.58;57.03;101293.78;2034363;86;21176;-81
2022/10/12 09:20:49;;;;;;;25.43;9.90;;;;;;;17.82;57.13;101294.89;2036157;86;21046;-79
2022/10/12 09:23:51;;;;;;;17.50;9.58;;;;;;;18.08;56.58;101291.71;2019467;86;21069;-78
2022/10/12 09:26:59;;;;;;;17.27;10.05;;;;;;;18.26;56.34;101284.58;2029903;86;21296;-78
2022/10/12 09:30:03;;;;;;;18.77;8.83;;;;;;;18.27;55.25;101291.64;2028932;86;20997;-78
2022/10/12 09:33:25;;;;;;;17.98;7.92;;;;;;;18.28;55.39;101281.72;2026481;86;21034;-77
2022/10/12 09:36:40;;;;;;;21.33;8.98;;;;;;;18.36;55.08;101281.09;2029863;85;21026;-76
2022/10/12 09:39:41;;;;;;;22.70;8.08;;;;;;;18.52;53.73;101277.31;2030652;86;21062;-79
2022/10/12 09:42:45;;;;;;;9.65;5.53;;;;;;;18.41;54.00;101279.16;2030314;86;21069;-80
2022/10/12 09:45:47;;;;;;;17.62;6.67;;;;;;;18.70;53.31;101282.27;2028750;86;21115;-80
2022/10/12 09:48:59;;;;;;;16.40;6.25;;;;;;;18.81;52.94;101277.75;2034829;86;20986;-80
2022/10/12 09:52:01;;;;;;;11.53;5.75;;;;;;;18.87;52.83;101270.77;2038758;85;21085;-80
2022/10/12 09:55:14;;;;;;;13.10;5.90;;;;;;;18.93;51.58;101276.72;2050767;85;21877;-80
2022/10/12 09:58:20;;;;;;;24.52;7.10;;;;;;;18.60;51.47;101287.12;2045429;85;21493;-81
2022/10/12 10:01:25;;;;;;;15.30;5.60;;;;;;;18.44;51.30;101281.98;2050853;85;21113;-79
2022/10/12 10:04:28;;;;;;;12.88;4.95;;;;;;;18.64;51.37;101284.39;2052002;85;21088;-80
2022/10/12 10:07:33;;;;;;;9.98;4.45;;;;;;;18.62;50.51;101278.88;2045932;85;21131;-81
2022/10/12 10:10:34;;;;;;;9.83;4.70;;;;;;;18.58;50.58;101281.95;2054826;85;21001;-79
2022/10/12 10:13:37;;;;;;;14.85;4.12;;;;;;;18.41;50.50;101276.98;2050993;85;20982;-80
2022/10/12 10:16:45;;;;;;;14.43;3.87;;;;;;;18.15;48.60;101268.95;2045681;85;21002;-79
2022/10/12 10:19:52;;;;;;;16.27;4.83;;;;;;;17.86;49.12;101267.16;2049769;85;21000;-80
2022/10/12 10:22:54;;;;;;;15.85;4.37;;;;;;;17.61;48.66;101275.45;2046399;85;21074;-82
2022/10/12 10:26:06;;;;;;;12.47;4.40;;;;;;;17.59;49.55;101265.92;2047155;85;21068;-80
2022/10/12 10:29:30;;;;;;;8.55;4.17;;;;;;;17.69;49.55;101266.48;2043943;85;21536;-79
2022/10/12 10:32:31;;;;;;;11.18;5.00;;;;;;;17.79;48.75;101261.67;2052246;85;21484;-81
2022/10/12 10:35:32;;;;;;;10.85;4.50;;;;;;;17.47;49.01;101262.35;2047136;85;21033;-76
2022/10/12 10:38:57;;;;;;;14.60;4.15;;;;;;;17.57;49.35;101259.89;2047974;85;21069;-79
2022/10/12 10:42:21;;;;;;;46.77;7.85;;;;;;;17.46;47.75;101247.28;2045147;85;20997;-80
2022/10/12 10:45:27;;;;;;;10.95;3.90;;;;;;;17.08;48.76;101255.05;2017280;85;21013;-78
2022/10/12 10:48:55;;;;;;;11.20;3.52;;;;;;;17.40;49.08;101253.39;2048508;85;21556;-78
2022/10/12 10:51:59;;;;;;;10.20;3.33;;;;;;;17.75;48.89;101250.14;1997777;85;21053;-77
2022/10/12 10:55:22;;;;;;;20.05;4.08;;;;;;;17.93;48.21;101251.94;2028214;86;21548;-79
2022/10/12 10:58:46;;;;;;;32.23;4.35;;;;;;;18.12;46.38;101250.53;2028954;86;21045;-80
2022/10/12 11:01:58;;;;;;;13.65;3.42;;;;;;;18.21;46.59;101241.33;2030244;86;21146;-80
2022/10/12 11:05:13;;;;;;;7.83;3.35;;;;;;;18.47;47.24;101241.28;2024415;86;21496;-78
2022/10/12 11:08:24;;;;;;;15.93;4.28;;;;;;;18.25;46.98;101249.34;2032360;86;21042;-79
2022/10/12 11:11:30;;;;;;;8.50;3.75;;;;;;;17.86;47.18;101242.48;2030141;86;21080;-78
2022/10/12 11:14:43;;;;;;;8.48;4.17;;;;;;;17.56;46.63;101239.45;2035803;86;20970;-82
2022/10/12 11:17:48;;;;;;;13.43;4.95;;;;;;;17.07;47.30;101237.30;2033036;86;21056;-79
2022/10/12 11:20:58;;;;;;;9.63;3.58;;;;;;;16.93;47.75;101233.56;2032695;86;21002;-78
2022/10/12 11:24:17;;;;;;;6.72;3.27;;;;;;;16.96;48.02;101234.03;2035684;86;21315;-80
2022/10/12 11:27:35;;;;;;;11.10;3.50;;;;;;;16.79;46.93;101235.19;2035210;86;21004;-80
2022/10/12 11:30:44;;;;;;;11.55;3.62;;;;;;;16.67;48.26;101239.26;2033655;86;21038;-79
2022/10/12 11:33:47;;;;;;;8.95;3.55;;;;;;;16.82;48.14;101231.32;2037018;86;21081;-76
2022/10/12 11:36:52;;;;;;;8.70;3.37;;;;;;;16.74;47.99;101229.50;2032544;86;21089;-79
2022/10/12 11:39:55;;;;;;;9.10;3.00;;;;;;;16.75;47.85;101227.14;2029608;86;21006;-80
2022/10/12 11:43:04;;;;;;;9.83;3.37;;;;;;;16.73;47.79;101221.15;2030529;86;21084;-79
2022/10/12 11:46:09;;;;;;;9.90;3.52;;;;;;;16.89;47.62;101221.53;2027352;86;21584;-79
2022/10/12 11:49:36;;;;;;;6.87;2.80;;;;;;;17.00;47.77;101227.27;2034616;86;21071;-79
2022/10/12 11:52:41;;;;;;;8.70;3.30;;;;;;;17.07;47.07;101219.87;2034795;86;21073;-81
2022/10/12 11:56:02;;;;;;;15.63;5.00;;;;;;;17.06;47.79;101215.50;2029944;86;21013;-79
2022/10/12 11:59:28;;;;;;;5.22;2.83;;;;;;;17.08;46.02;101218.33;2035286;86;21576;-80
2022/10/12 12:02:47;;;;;;;9.75;3.00;;;;;;;16.92;46.83;101211.78;2037076;86;21044;-79
2022/10/12 12:05:48;;;;;;;11.55;3.92;;;;;;;16.66;46.23;101206.78;2039061;86;21029;-81
2022/10/12 12:09:04;;;;;;;9.73;3.35;;;;;;;16.71;47.54;101213.78;2040844;86;21096;-80
2022/10/12 12:12:22;;;;;;;10.00;3.30;;;;;;;16.78;47.43;101203.55;2033886;86;21037;-81
2022/10/12 12:15:23;;;;;;;7.20;3.20;;;;;;;16.84;47.67;101208.69;2033318;86;21045;-80
2022/10/12 12:18:28;;;;;;;5.25;2.70;;;;;;;16.83;47.28;101202.98;2026230;86;21049;-80
2022/10/12 12:21:29;;;;;;;12.10;3.70;;;;;;;16.73;46.60;101202.39;2026351;86;21014;-80
2022/10/12 12:24:31;;;;;;;6.90;2.22;;;;;;;16.57;47.08;101196.65;2042408;86;20985;-79
2022/10/12 12:27:43;;;;;;;9.03;3.30;;;;;;;16.45;46.61;101193.56;2034172;86;21514;-78
2022/10/12 12:31:01;;;;;;;10.88;3.35;;;;;;;16.48;47.40;101192.38;2034269;86;21024;-80
2022/10/12 12:34:12;;;;;;;11.05;2.95;;;;;;;16.36;46.05;101190.63;2031415;86;20997;-80
2022/10/12 12:37:17;;;;;;;7.53;2.75;;;;;;;15.75;47.04;101190.48;2030988;86;21027;-81
2022/10/12 12:40:23;;;;;;;9.23;2.83;;;;;;;15.56;47.85;101189.52;2029494;86;21082;-78
2022/10/12 12:43:38;;;;;;;7.33;3.22;;;;;;;15.51;47.93;101197.22;2039736;86;21512;-79
2022/10/12 12:46:57;;;;;;;7.92;2.92;;;;;;;15.42;48.52;101197.76;2009258;86;21523;-80
2022/10/12 12:50:23;;;;;;;6.60;2.85;;;;;;;15.46;48.96;101189.23;2004255;86;21076;-81
2022/10/12 12:53:24;;;;;;;8.23;3.37;;;;;;;15.57;48.71;101197.86;2038594;85;21579;-78
2022/10/12 12:56:46;;;;;;;10.43;3.40;;;;;;;15.60;48.05;101190.86;2049330;85;21096;-80
2022/10/12 13:00:20;;;;;;;10.10;3.12;;;;;;;15.55;48.34;101190.03;2051064;85;21010;-80
2022/10/12 13:03:39;;;;;;;7.20;3.27;;;;;;;15.51;48.34;101191.37;2046063;85;21018;-79
2022/10/12 13:07:14;;;;;;;7.85;3.20;;;;;;;15.52;48.17;101189.55;2049027;85;21487;-79
2022/10/12 13:10:58;;;;;;;7.25;3.17;;;;;;;15.40;47.98;101183.72;2052544;85;21045;-80
2022/10/12 13:14:51;;;;;;;9.90;3.47;;;;;;;15.39;48.67;101181.55;2045335;85;21104;-79
2022/10/12 13:18:35;;;;;;;8.93;3.10;;;;;;;15.44;48.39;101175.70;2047929;85;21068;-77
2022/10/12 13:21:50;;;;;;;12.80;3.92;;;;;;;15.25;48.84;101170.23;2047083;85;21034;-80
2022/10/12 13:24:58;;;;;;;7.30;3.65;;;;;;;15.21;49.07;101163.07;2050229;85;21036;-80
2022/10/12 13:28:03;;;;;;;13.68;3.83;;;;;;;15.22;49.43;101163.39;2042993;85;21639;-79
2022/10/12 13:31:09;;;;;;;7.90;3.22;;;;;;;15.13;49.23;101164.42;2049226;85;21104;-80
2022/10/12 13:34:23;;;;;;;11.80;3.22;;;;;;;15.04;49.22;101161.45;2049063;85;21105;-81
2022/10/12 13:37:31;;;;;;;10.68;3.40;;;;;;;14.89;49.98;101165.30;2046614;85;21088;-79
2022/10/12 13:40:39;;;;;;;8.78;3.40;;;;;;;14.79;50.10;101162.82;2046548;85;21044;-80
2022/10/12 13:43:57;;;;;;;8.95;3.55;;;;;;;14.62;49.95;101157.67;2051304;85;21061;-82
2022/10/12 13:47:01;;;;;;;12.00;4.00;;;;;;;14.40;50.54;101155.13;2046324;85;21053;-81
2022/10/12 13:50:03;;;;;;;10.23;3.55;;;;;;;14.26;50.46;101145.44;2044719;85;21005;-80
2022/10/12 13:53:10;;;;;;;8.88;3.10;;;;;;;14.18;51.12;101153.94;2042139;85;21539;-80
2022/10/12 13:56:18;;;;;;;11.28;3.30;;;;;;;14.24;50.32;101152.77;2048649;85;21075;-79
2022/10/12 13:59:23;;;;;;;10.23;3.75;;;;;;;14.33;51.29;101158.95;2037476;85;21048;-81
2022/10/12 14:02:29;;;;;;;7.92;2.80;;;;;;;14.37;50.59;101154.95;2042425;85;21037;-81
2022/10/12 14:05:32;;;;;;;10.13;3.12;;;;;;;14.31;50.87;101151.63;2039665;85;21001;-80
2022/10/12 14:08:34;;;;;;;7.67;3.08;;;;;;;14.25;50.74;101153.13;2039103;85;21956;-81
2022/10/12 14:11:37;;;;;;;10.30;2.80;;;;;;;14.10;50.73;101153.42;2044715;85;21685;-80
2022/10/12 14:14:42;;;;;;;12.78;3.50;;;;;;;14.01;50.97;101145.07;2031720;85;21022;-81
2022/10/12 14:17:51;;;;;;;9.93;3.50;;;;;;;13.97;51.03;101139.23;2036563;85;21049;-80
2022/10/12 14:21:18;;;;;;;9.23;3.08;;;;;;;13.97;51.08;101141.91;2037084;85;21063;-79
2022/10/12 14:24:19;;;;;;;6.50;3.08;;;;;;;13.93;51.46;101134.38;2043316;85;21033;-80
2022/10/12 14:27:25;;;;;;;5.65;2.95;;;;;;;13.80;51.25;101134.37;2040751;85;20997;-79
2022/10/12 14:30:32;;;;;;;12.03;3.60;;;;;;;13.74;51.56;101139.02;2040991;85;21029;-81